Time;durP1;ratioP1;P1;durP2;ratioP2;P2;SDS_P1;SDS_P2;PMS_P1;PMS_P2;Temp;Humidity;BMP_temperature;BMP_pressure;BME280_temperature;BME280_humidity;BME280_pressure;Samples;Min_cycle;Max_cycle;Signal;HPM_P1;HPM_P2
2022/07/11 00:00:05;;;;;;;6.45;3.05;;;19.10;67.90;;;;;;5095298;28;20088;-74
2022/07/11 00:02:31;;;;;;;7.18;2.92;;;19.00;67.90;;;;;;5113161;28;20016;-74
2022/07/11 00:04:57;;;;;;;4.72;2.95;;;19.00;68.20;;;;;;5113148;28;20434;-74
2022/07/11 00:07:22;;;;;;;3.72;2.60;;;19.10;68.50;;;;;;5113085;28;20020;-74
2022/07/11 00:09:48;;;;;;;5.85;3.00;;;19.00;68.70;;;;;;5113110;28;20035;-74
2022/07/11 00:12:14;;;;;;;4.47;2.53;;;19.00;68.90;;;;;;5113055;28;20024;-73
2022/07/11 00:14:41;;;;;;;4.55;2.67;;;19.00;68.90;;;;;;5113049;28;20108;-74
2022/07/11 00:17:10;;;;;;;3.80;2.70;;;19.00;68.80;;;;;;5116004;28;20103;-74
2022/07/11 00:19:36;;;;;;;5.80;2.67;;;19.00;68.80;;;;;;5098736;28;20020;-75
2022/07/11 00:22:03;;;;;;;4.55;2.50;;;18.90;69.00;;;;;;5116778;28;20088;-74
2022/07/11 00:24:29;;;;;;;7.55;4.10;;;18.90;68.80;;;;;;5116704;28;20020;-74
2022/07/11 00:26:55;;;;;;;6.18;2.60;;;18.90;69.10;;;;;;5116700;28;20027;-74
2022/07/11 00:29:21;;;;;;;5.47;2.75;;;18.80;69.40;;;;;;5116571;28;20028;-74
2022/07/11 00:31:46;;;;;;;3.75;2.60;;;18.80;69.50;;;;;;5116573;28;20034;-74
2022/07/11 00:34:12;;;;;;;4.93;2.42;;;18.70;69.20;;;;;;5098837;28;20047;-74
2022/07/11 00:36:38;;;;;;;4.22;2.50;;;18.70;69.30;;;;;;5116483;28;20083;-75
2022/07/11 00:39:03;;;;;;;5.20;2.83;;;18.70;69.60;;;;;;5116503;28;20483;-75
2022/07/11 00:41:29;;;;;;;5.85;3.10;;;18.60;70.70;;;;;;5116405;28;20073;-74
2022/07/11 00:43:59;;;;;;;4.78;2.90;;;18.60;71.00;;;;;;5116362;28;20149;-74
2022/07/11 00:46:26;;;;;;;7.45;3.60;;;18.60;71.10;;;;;;5116339;28;20040;-74
2022/07/11 00:48:52;;;;;;;6.13;4.13;;;18.60;71.20;;;;;;5116253;28;20043;-74
2022/07/11 00:51:22;;;;;;;6.25;4.03;;;18.70;71.30;;;;;;5098287;28;20039;-74
2022/07/11 00:53:51;;;;;;;8.95;4.53;;;18.80;71.30;;;;;;5116205;28;20050;-74
2022/07/11 00:56:21;;;;;;;7.82;4.47;;;18.80;71.60;;;;;;5115926;28;20032;-74
2022/07/11 00:58:51;;;;;;;9.35;4.82;;;18.70;72.30;;;;;;5116040;28;20024;-74
2022/07/11 01:01:18;;;;;;;7.38;4.68;;;18.70;72.70;;;;;;5116158;28;20028;-74
2022/07/11 01:03:43;;;;;;;8.50;5.10;;;18.60;73.00;;;;;;5115966;28;20016;-74
2022/07/11 01:06:09;;;;;;;9.75;4.53;;;18.50;73.50;;;;;;5116037;28;20103;-74
2022/07/11 01:08:35;;;;;;;11.95;5.05;;;18.50;73.40;;;;;;5115876;28;20032;-74
2022/07/11 01:11:18;;;;;;;8.18;4.80;;;18.70;73.30;;;;;;5115861;28;20057;-74
2022/07/11 01:13:45;;;;;;;8.82;4.93;;;18.70;73.50;;;;;;5115836;28;20035;-74
2022/07/11 01:16:16;;;;;;;8.20;5.20;;;18.60;73.70;;;;;;5115724;28;20052;-74
2022/07/11 01:18:50;;;;;;;9.52;4.35;;;18.60;73.70;;;;;;5115654;28;20394;-74
2022/07/11 01:21:30;;;;;;;10.70;4.82;;;18.60;74.10;;;;;;5115655;28;20088;-74
2022/07/11 01:24:00;;;;;;;7.32;4.57;;;18.60;73.90;;;;;;5115719;28;20020;-74
2022/07/11 01:26:26;;;;;;;6.18;4.43;;;18.60;73.70;;;;;;5115548;28;20026;-74
2022/07/11 01:28:53;;;;;;;7.70;4.60;;;18.70;73.70;;;;;;5114620;28;20054;-74
2022/07/11 01:31:19;;;;;;;8.68;4.40;;;18.70;73.60;;;;;;5115390;28;20093;-74
2022/07/11 01:33:45;;;;;;;8.55;4.70;;;18.70;73.60;;;;;;5115409;28;20024;-74
2022/07/11 01:36:12;;;;;;;6.88;4.32;;;18.70;73.50;;;;;;5115349;28;20042;-74
2022/07/11 01:38:39;;;;;;;8.70;4.72;;;18.80;73.30;;;;;;5115219;28;20026;-74
2022/07/11 01:41:05;;;;;;;7.30;4.03;;;18.90;73.20;;;;;;5115217;28;20012;-74
2022/07/11 01:43:31;;;;;;;12.98;4.95;;;18.90;73.30;;;;;;5115206;28;20017;-73
2022/07/11 01:45:57;;;;;;;5.95;4.03;;;18.80;73.50;;;;;;5115134;28;20032;-74
2022/07/11 01:48:23;;;;;;;7.85;4.60;;;18.80;73.80;;;;;;5115084;28;20024;-74
2022/07/11 01:50:49;;;;;;;7.38;4.20;;;18.80;73.70;;;;;;5115046;28;20032;-74
2022/07/11 01:53:15;;;;;;;7.22;4.38;;;18.80;73.50;;;;;;5114986;28;20027;-74
2022/07/11 01:55:41;;;;;;;9.43;4.60;;;18.90;73.20;;;;;;5114983;28;20024;-74
2022/07/11 01:58:07;;;;;;;5.65;3.83;;;19.00;73.00;;;;;;5096890;28;20444;-74
2022/07/11 02:00:32;;;;;;;8.25;3.90;;;19.10;72.80;;;;;;5114862;28;20034;-74
2022/07/11 02:02:58;;;;;;;8.40;4.18;;;19.00;73.00;;;;;;5096842;28;20032;-74
2022/07/11 02:05:24;;;;;;;6.85;5.07;;;19.10;73.10;;;;;;5114772;28;20016;-74
2022/07/11 02:10:33;;;;;;;10.25;4.78;;;19.00;74.10;;;;;;5114823;28;20035;-74
2022/07/11 02:13:00;;;;;;;9.35;4.30;;;19.10;73.20;;;;;;5114627;28;20080;-74
2022/07/11 02:15:26;;;;;;;9.18;4.15;;;19.10;74.10;;;;;;5114613;28;20032;-74
2022/07/11 02:17:52;;;;;;;6.65;4.35;;;19.10;74.00;;;;;;5114426;28;20422;-74
2022/07/11 02:20:21;;;;;;;9.23;4.60;;;19.00;73.40;;;;;;5114500;28;20076;-74
2022/07/11 02:22:48;;;;;;;7.40;4.38;;;19.00;73.70;;;;;;5114445;28;20050;-74
2022/07/11 02:25:14;;;;;;;10.25;4.63;;;18.90;74.20;;;;;;5114396;28;20038;-74
2022/07/11 02:27:40;;;;;;;10.85;4.78;;;19.00;74.30;;;;;;5114369;28;20046;-75
2022/07/11 02:30:07;;;;;;;6.65;4.82;;;19.00;74.10;;;;;;5114220;28;20024;-75
2022/07/11 02:32:32;;;;;;;9.07;4.60;;;19.00;74.10;;;;;;5114248;28;20016;-75
2022/07/11 02:34:58;;;;;;;7.72;4.35;;;19.00;74.20;;;;;;5114226;28;20052;-74
2022/07/11 02:37:24;;;;;;;7.72;4.25;;;19.00;73.90;;;;;;5114181;28;20028;-74
2022/07/11 02:39:49;;;;;;;6.93;4.28;;;19.10;73.90;;;;;;5114071;28;20030;-74
2022/07/11 02:42:15;;;;;;;9.75;5.07;;;19.10;73.90;;;;;;5114084;28;20028;-74
2022/07/11 02:44:41;;;;;;;9.40;4.28;;;19.10;73.90;;;;;;5114047;28;20082;-74
2022/07/11 02:47:06;;;;;;;9.45;4.82;;;19.10;74.10;;;;;;5096087;28;20024;-74
2022/07/11 02:49:32;;;;;;;6.22;4.15;;;19.10;74.20;;;;;;5113984;28;20036;-74
2022/07/11 02:51:58;;;;;;;10.07;4.75;;;19.10;74.10;;;;;;5096144;28;20023;-74
2022/07/11 02:54:24;;;;;;;8.88;4.80;;;19.10;74.20;;;;;;5113902;28;20044;-74
2022/07/11 02:56:50;;;;;;;9.20;4.88;;;19.10;74.40;;;;;;5113608;28;20044;-74
2022/07/11 02:59:15;;;;;;;9.98;4.30;;;19.00;74.80;;;;;;5113771;28;20483;-74
2022/07/11 03:01:41;;;;;;;9.55;4.40;;;19.00;74.80;;;;;;5096050;28;20192;-74
2022/07/11 03:04:08;;;;;;;7.20;4.40;;;18.90;75.00;;;;;;5095940;28;20031;-74
2022/07/11 03:06:33;;;;;;;6.13;4.40;;;19.00;75.00;;;;;;5113721;28;20020;-74
2022/07/11 03:08:59;;;;;;;6.65;4.45;;;19.00;75.10;;;;;;5095878;28;20047;-74
2022/07/11 03:11:24;;;;;;;7.63;4.80;;;18.90;75.40;;;;;;5113671;28;20047;-74
2022/07/11 03:13:50;;;;;;;9.50;5.28;;;18.90;75.60;;;;;;5113634;28;20073;-74
2022/07/11 03:16:16;;;;;;;7.75;4.60;;;18.90;75.60;;;;;;5095775;28;20032;-75
2022/07/11 03:18:41;;;;;;;9.18;4.90;;;18.80;75.80;;;;;;5113520;28;20093;-75
2022/07/11 03:21:08;;;;;;;9.55;5.00;;;18.80;76.10;;;;;;5113685;28;20041;-74
2022/07/11 03:23:34;;;;;;;7.30;4.45;;;18.70;76.30;;;;;;5113507;28;20012;-74
2022/07/11 03:26:00;;;;;;;7.72;4.18;;;18.80;76.10;;;;;;5113533;28;20021;-74
2022/07/11 03:28:26;;;;;;;8.35;4.70;;;18.70;76.20;;;;;;5113407;28;20020;-75
2022/07/11 03:30:51;;;;;;;7.45;4.65;;;18.80;76.60;;;;;;5113194;28;20555;-74
2022/07/11 03:33:17;;;;;;;8.00;4.57;;;18.70;76.40;;;;;;5113541;28;20028;-74
2022/07/11 03:35:43;;;;;;;7.85;4.65;;;18.70;76.50;;;;;;5113434;28;20039;-74
2022/07/11 03:38:09;;;;;;;8.52;4.90;;;18.70;76.60;;;;;;5113461;28;20024;-74
2022/07/11 03:40:35;;;;;;;8.60;4.80;;;18.80;76.30;;;;;;5113340;28;20024;-74
2022/07/11 03:43:01;;;;;;;9.07;5.05;;;18.80;76.50;;;;;;5113383;28;20031;-74
2022/07/11 03:45:27;;;;;;;7.93;4.60;;;18.70;76.70;;;;;;5095440;28;20021;-74
2022/07/11 03:47:53;;;;;;;8.82;4.72;;;18.80;76.50;;;;;;5113282;28;20023;-74
2022/07/11 03:50:19;;;;;;;8.32;4.60;;;18.80;76.40;;;;;;5095477;28;20032;-74
2022/07/11 03:52:45;;;;;;;8.75;4.82;;;18.80;76.60;;;;;;5117341;28;20024;-74
2022/07/11 03:55:11;;;;;;;10.25;4.63;;;18.80;76.80;;;;;;5117305;28;20027;-74
2022/07/11 03:57:37;;;;;;;7.40;5.13;;;18.80;77.00;;;;;;5117054;28;20060;-74
2022/07/11 04:00:05;;;;;;;6.95;4.70;;;18.80;76.90;;;;;;5117150;28;20040;-74
2022/07/11 04:02:32;;;;;;;8.93;4.40;;;18.90;76.60;;;;;;5117160;28;20016;-74
2022/07/11 04:04:58;;;;;;;9.50;4.40;;;18.90;76.80;;;;;;5117123;28;20028;-74
2022/07/11 04:07:23;;;;;;;9.85;4.68;;;18.80;77.00;;;;;;5117059;28;20038;-74
2022/07/11 04:09:49;;;;;;;8.50;4.03;;;18.80;77.20;;;;;;5117161;28;20032;-74
2022/07/11 04:12:14;;;;;;;7.90;4.15;;;18.80;77.00;;;;;;5117096;28;20032;-74
2022/07/11 04:14:40;;;;;;;10.40;4.35;;;18.80;77.10;;;;;;5098970;28;20033;-74
2022/07/11 04:17:06;;;;;;;7.60;4.00;;;18.80;77.10;;;;;;5117050;28;20021;-74
2022/07/11 04:19:31;;;;;;;6.57;3.50;;;18.90;77.00;;;;;;5116893;28;20583;-74
2022/07/11 04:21:58;;;;;;;6.60;3.20;;;18.90;76.90;;;;;;5116820;28;20054;-74
2022/07/11 04:24:23;;;;;;;5.25;3.08;;;19.00;76.60;;;;;;5116903;28;20024;-75
2022/07/11 04:26:50;;;;;;;6.38;3.40;;;19.10;76.30;;;;;;5116667;28;20036;-74
2022/07/11 04:29:16;;;;;;;5.53;2.95;;;19.00;76.10;;;;;;5116652;28;20453;-74
2022/07/11 04:31:41;;;;;;;7.68;2.92;;;19.10;76.00;;;;;;5116623;28;20040;-74
2022/07/11 04:34:07;;;;;;;6.13;2.72;;;19.10;75.90;;;;;;5098801;28;20035;-74
2022/07/11 04:36:32;;;;;;;7.03;2.80;;;19.20;75.80;;;;;;5116528;28;20035;-75
2022/07/11 04:38:58;;;;;;;7.25;3.00;;;19.20;75.70;;;;;;5116430;28;20052;-74
2022/07/11 04:41:24;;;;;;;4.65;2.40;;;19.20;75.60;;;;;;5098579;28;20025;-74
2022/07/11 04:43:49;;;;;;;4.88;2.35;;;19.20;75.50;;;;;;5116375;28;20509;-74
2022/07/11 04:46:15;;;;;;;4.80;2.47;;;19.20;75.40;;;;;;5116451;28;20021;-75
2022/07/11 04:48:41;;;;;;;5.05;2.15;;;19.20;75.40;;;;;;5098457;28;20032;-75
2022/07/11 04:51:06;;;;;;;4.30;1.92;;;19.20;75.40;;;;;;5098608;28;20035;-74
2022/07/11 04:53:33;;;;;;;3.60;2.25;;;19.30;75.20;;;;;;5115956;28;20043;-74
2022/07/11 04:55:58;;;;;;;3.42;1.83;;;19.20;75.10;;;;;;5116172;28;20094;-74
2022/07/11 04:58:25;;;;;;;5.28;2.08;;;19.20;75.00;;;;;;5094639;28;20037;-74
2022/07/11 05:00:51;;;;;;;4.05;2.00;;;19.20;75.30;;;;;;5095758;28;20021;-74
2022/07/11 05:03:18;;;;;;;7.03;1.70;;;19.30;75.30;;;;;;5094514;28;20033;-74
2022/07/11 05:05:44;;;;;;;5.05;1.80;;;19.30;75.30;;;;;;5095669;28;20035;-75
2022/07/11 05:08:10;;;;;;;7.95;1.98;;;19.30;75.40;;;;;;5095740;28;20033;-75
2022/07/11 05:10:36;;;;;;;3.88;1.95;;;19.20;75.50;;;;;;5095547;28;20037;-75
2022/07/11 05:13:02;;;;;;;4.15;1.75;;;19.30;75.50;;;;;;5095465;28;20027;-75
2022/07/11 05:15:28;;;;;;;3.35;1.90;;;19.30;75.50;;;;;;5095502;28;20048;-75
2022/07/11 05:17:54;;;;;;;3.83;1.77;;;19.30;75.50;;;;;;5095324;28;20024;-74
2022/07/11 05:20:20;;;;;;;4.95;2.00;;;19.30;75.50;;;;;;5095411;28;20376;-74
2022/07/11 05:22:46;;;;;;;3.67;1.98;;;19.30;75.50;;;;;;5095358;28;20021;-74
2022/07/11 05:25:12;;;;;;;4.05;2.10;;;19.30;75.60;;;;;;5095318;28;20017;-74
2022/07/11 05:27:37;;;;;;;4.53;2.33;;;19.40;75.80;;;;;;5095261;28;20028;-74
2022/07/11 05:30:03;;;;;;;4.05;2.10;;;19.40;75.90;;;;;;5095100;28;20032;-75
2022/07/11 05:32:29;;;;;;;3.60;2.10;;;19.30;76.00;;;;;;5095198;28;20047;-75
2022/07/11 05:34:56;;;;;;;2.72;1.80;;;19.30;76.20;;;;;;5095141;28;20032;-75
2022/07/11 05:37:22;;;;;;;4.35;2.20;;;19.30;76.10;;;;;;5095025;28;20032;-75
2022/07/11 05:39:48;;;;;;;7.60;2.13;;;19.40;76.30;;;;;;5094934;28;20039;-74
2022/07/11 05:42:15;;;;;;;2.60;1.70;;;19.30;76.40;;;;;;5094940;28;20021;-75
2022/07/11 05:44:40;;;;;;;4.35;1.75;;;19.40;76.40;;;;;;5095056;28;20048;-74
2022/07/11 05:47:06;;;;;;;3.83;2.13;;;19.30;76.40;;;;;;5077197;28;20036;-75
2022/07/11 05:49:32;;;;;;;3.75;1.92;;;19.30;76.50;;;;;;5094979;28;20052;-75
2022/07/11 05:51:57;;;;;;;4.65;1.80;;;19.30;76.60;;;;;;5094752;28;20031;-74
2022/07/11 05:54:23;;;;;;;6.63;2.17;;;19.30;76.70;;;;;;5094690;28;20076;-75
2022/07/11 05:56:49;;;;;;;5.32;2.00;;;19.30;76.70;;;;;;5098458;28;20055;-74
2022/07/11 05:59:15;;;;;;;4.93;1.83;;;19.30;76.70;;;;;;5114881;28;20081;-75
2022/07/11 06:01:40;;;;;;;3.15;1.80;;;19.30;76.70;;;;;;5114906;28;20043;-75
2022/07/11 06:04:06;;;;;;;3.00;1.80;;;19.30;77.40;;;;;;5114845;28;20426;-75
2022/07/11 06:06:32;;;;;;;4.43;2.00;;;19.40;76.60;;;;;;5096841;28;20032;-75
2022/07/11 06:08:58;;;;;;;3.33;2.17;;;19.40;76.60;;;;;;5114772;28;20028;-75
2022/07/11 06:11:24;;;;;;;2.70;2.17;;;19.40;76.60;;;;;;5114824;28;20028;-76
2022/07/11 06:13:50;;;;;;;5.15;2.28;;;19.40;76.60;;;;;;5114503;28;20031;-75
2022/07/11 06:16:17;;;;;;;4.00;2.30;;;19.40;76.70;;;;;;5114544;28;20039;-75
2022/07/11 06:18:44;;;;;;;6.35;2.45;;;19.40;76.80;;;;;;5114496;28;20048;-74
2022/07/11 06:21:09;;;;;;;3.58;2.20;;;19.40;76.80;;;;;;5114435;28;20083;-75
2022/07/11 06:23:35;;;;;;;4.38;2.45;;;19.50;76.70;;;;;;5114455;28;20035;-74
2022/07/11 06:26:01;;;;;;;5.05;2.30;;;19.50;76.70;;;;;;5114405;28;20076;-75
2022/07/11 06:28:27;;;;;;;4.93;2.08;;;19.50;76.80;;;;;;5114367;28;20024;-75
2022/07/11 06:30:53;;;;;;;4.90;1.98;;;19.50;77.80;;;;;;5114304;28;20047;-74
2022/07/11 06:33:19;;;;;;;4.53;1.92;;;19.50;77.10;;;;;;5114277;28;20083;-74
2022/07/11 06:35:46;;;;;;;4.78;2.10;;;19.50;77.10;;;;;;5114206;28;20031;-75
2022/07/11 06:38:13;;;;;;;2.50;1.88;;;19.60;77.40;;;;;;5114110;28;20028;-75
2022/07/11 06:40:39;;;;;;;4.05;1.88;;;19.60;77.40;;;;;;5114158;28;20016;-75
2022/07/11 06:43:06;;;;;;;3.80;2.10;;;19.60;77.50;;;;;;5114103;28;20021;-74
2022/07/11 06:45:32;;;;;;;2.38;1.90;;;19.60;77.50;;;;;;5096181;28;20531;-74
2022/07/11 06:47:58;;;;;;;3.63;1.90;;;19.60;77.50;;;;;;5114040;28;20024;-74
2022/07/11 06:50:24;;;;;;;2.75;1.67;;;19.50;77.40;;;;;;5113974;28;20022;-74
2022/07/11 06:52:49;;;;;;;3.72;1.70;;;19.50;77.60;;;;;;5113951;28;20032;-74
2022/07/11 06:55:15;;;;;;;5.50;1.80;;;19.60;77.50;;;;;;5113919;28;20031;-74
2022/07/11 06:57:41;;;;;;;2.53;1.60;;;19.50;77.40;;;;;;5113617;28;20060;-74
2022/07/11 07:00:08;;;;;;;3.63;1.35;;;19.60;77.50;;;;;;5113772;28;20036;-75
2022/07/11 07:02:34;;;;;;;2.85;1.50;;;19.60;77.40;;;;;;5113804;28;20467;-74
2022/07/11 07:04:59;;;;;;;2.15;1.33;;;19.60;77.30;;;;;;5113756;28;20028;-74
2022/07/11 07:07:26;;;;;;;3.20;1.30;;;19.60;77.20;;;;;;5113703;28;20020;-74
2022/07/11 07:09:53;;;;;;;2.97;1.40;;;19.70;77.00;;;;;;5095840;28;20097;-74
2022/07/11 07:12:20;;;;;;;1.60;1.10;;;19.70;76.80;;;;;;5095806;28;20032;-74
2022/07/11 07:14:45;;;;;;;1.77;1.35;;;19.70;76.70;;;;;;5113667;28;20024;-74
2022/07/11 07:17:11;;;;;;;1.70;1.38;;;19.80;76.60;;;;;;5113660;28;20032;-74
2022/07/11 07:19:37;;;;;;;3.40;1.30;;;19.80;76.40;;;;;;5095755;28;20021;-74
2022/07/11 07:22:02;;;;;;;1.85;0.98;;;19.80;77.20;;;;;;5113565;28;20403;-74
2022/07/11 07:24:28;;;;;;;3.22;1.35;;;19.80;76.00;;;;;;5113545;28;20035;-74
2022/07/11 07:26:54;;;;;;;4.22;1.42;;;19.90;76.00;;;;;;5112827;28;20024;-74
2022/07/11 07:29:20;;;;;;;2.40;1.40;;;19.80;75.60;;;;;;5113565;28;20058;-74
2022/07/11 07:31:46;;;;;;;2.55;1.35;;;19.90;75.80;;;;;;5113456;28;20023;-74
2022/07/11 07:34:12;;;;;;;2.15;1.20;;;19.80;75.90;;;;;;5113445;28;20020;-74
2022/07/11 07:36:37;;;;;;;2.10;1.30;;;19.80;75.80;;;;;;5113425;28;20046;-74
2022/07/11 07:39:03;;;;;;;1.67;1.30;;;19.80;75.90;;;;;;5113360;28;20494;-74
2022/07/11 07:41:29;;;;;;;3.00;1.48;;;19.80;75.90;;;;;;5095506;28;20020;-74
2022/07/11 07:43:54;;;;;;;2.15;1.40;;;19.80;75.90;;;;;;5113360;28;20020;-74
2022/07/11 07:46:20;;;;;;;1.33;1.10;;;19.80;76.00;;;;;;5095451;28;20088;-75
2022/07/11 07:48:46;;;;;;;3.38;1.50;;;19.80;75.90;;;;;;5113282;28;20057;-75
2022/07/11 07:51:11;;;;;;;2.13;1.60;;;19.90;75.90;;;;;;5113236;28;20024;-75
2022/07/11 07:53:37;;;;;;;2.05;1.15;;;19.90;75.90;;;;;;5113290;28;20040;-74
2022/07/11 07:56:06;;;;;;;1.23;1.10;;;19.90;75.80;;;;;;5113374;28;20035;-74
2022/07/11 07:58:32;;;;;;;1.60;1.20;;;19.90;75.40;;;;;;5113032;28;20115;-74
2022/07/11 08:03:41;;;;;;;1.92;1.30;;;20.00;75.40;;;;;;5113310;28;20035;-74
2022/07/11 08:06:07;;;;;;;1.55;1.13;;;20.00;75.20;;;;;;5113160;28;20024;-74
2022/07/11 08:08:33;;;;;;;3.33;1.35;;;20.00;75.30;;;;;;5113136;28;20039;-74
2022/07/11 08:11:01;;;;;;;1.10;1.00;;;20.00;75.10;;;;;;5113122;28;20028;-74
2022/07/11 08:13:28;;;;;;;1.95;1.20;;;20.00;75.10;;;;;;5113079;28;20031;-74
2022/07/11 08:15:54;;;;;;;1.92;1.40;;;20.00;75.00;;;;;;5112857;28;20032;-74
2022/07/11 08:18:19;;;;;;;2.40;1.33;;;20.00;74.80;;;;;;5113038;28;20039;-74
2022/07/11 08:20:45;;;;;;;1.23;0.93;;;20.10;74.90;;;;;;5113036;28;20056;-75
2022/07/11 08:23:12;;;;;;;1.17;0.88;;;20.10;74.60;;;;;;5113006;28;20046;-74
2022/07/11 08:25:39;;;;;;;0.65;0.60;;;20.00;74.70;;;;;;5112992;28;20012;-74
2022/07/11 08:28:05;;;;;;;0.70;0.60;;;20.10;74.20;;;;;;5112888;28;20020;-74
2022/07/11 08:30:31;;;;;;;0.85;0.60;;;20.20;73.80;;;;;;5112934;28;20024;-74
2022/07/11 08:32:56;;;;;;;0.50;0.47;;;20.20;73.60;;;;;;5112896;28;20020;-74
2022/07/11 08:35:22;;;;;;;1.10;0.73;;;20.20;73.20;;;;;;5113025;28;20042;-74
2022/07/11 08:37:48;;;;;;;0.65;0.63;;;20.20;73.00;;;;;;5115194;28;20055;-74
2022/07/11 08:40:13;;;;;;;1.92;1.00;;;20.30;72.80;;;;;;5116519;28;20032;-74
2022/07/11 08:42:44;;;;;;;2.05;0.98;;;20.30;72.70;;;;;;5098723;28;20025;-74
2022/07/11 08:45:14;;;;;;;2.35;1.00;;;20.30;72.80;;;;;;5116423;28;20020;-74
2022/07/11 08:47:40;;;;;;;1.00;0.70;;;20.20;72.60;;;;;;5116376;28;20021;-74
2022/07/11 08:50:07;;;;;;;2.10;1.10;;;20.20;72.60;;;;;;5116317;28;20092;-74
2022/07/11 08:52:33;;;;;;;2.13;1.00;;;20.20;72.50;;;;;;5098297;28;20056;-74
2022/07/11 08:54:59;;;;;;;2.60;0.80;;;20.30;72.60;;;;;;5116231;28;20032;-75
2022/07/11 08:57:25;;;;;;;1.20;0.73;;;20.30;72.60;;;;;;5116008;28;20049;-74
2022/07/11 08:59:55;;;;;;;1.45;0.93;;;20.30;72.50;;;;;;5116087;28;20048;-74
2022/07/11 09:02:22;;;;;;;1.10;0.70;;;20.30;72.40;;;;;;5116084;28;20061;-74
2022/07/11 09:04:48;;;;;;;1.73;0.90;;;20.30;72.30;;;;;;5116008;28;20045;-74
2022/07/11 09:07:14;;;;;;;1.20;0.85;;;20.30;72.40;;;;;;5116007;28;20028;-74
2022/07/11 09:09:40;;;;;;;0.93;0.80;;;20.40;72.30;;;;;;5115945;28;20055;-74
2022/07/11 09:12:25;;;;;;;0.82;0.73;;;20.40;72.20;;;;;;5115847;28;20028;-74
2022/07/11 09:14:51;;;;;;;8.07;1.55;;;20.40;72.00;;;;;;5097623;28;20051;-75
2022/07/11 09:17:28;;;;;;;2.97;1.10;;;20.30;72.10;;;;;;5115777;28;20048;-74
2022/07/11 09:19:53;;;;;;;6.45;1.63;;;20.40;72.90;;;;;;5115713;28;20032;-74
2022/07/11 09:27:53;;;;;;;3.08;1.00;;;20.40;71.90;;;;;;5115747;28;20028;-75
2022/07/11 09:30:24;;;;;;;2.47;1.20;;;20.40;71.90;;;;;;5115554;28;20046;-75
2022/07/11 09:32:56;;;;;;;29.70;3.13;;;20.40;72.20;;;;;;5115488;28;20024;-75
2022/07/11 09:35:37;;;;;;;25.60;2.70;;;20.40;72.40;;;;;;5115413;28;20020;-75
2022/07/11 09:38:10;;;;;;;46.55;5.88;;;20.40;72.60;;;;;;5115356;28;20034;-75
2022/07/11 09:40:37;;;;;;;6.15;1.50;;;20.40;72.50;;;;;;5115378;28;20040;-74
2022/07/11 09:43:04;;;;;;;2.58;1.33;;;20.40;73.20;;;;;;5115304;28;20103;-74
2022/07/11 09:45:31;;;;;;;1.38;1.10;;;20.40;72.30;;;;;;5115228;28;20083;-74
2022/07/11 09:47:59;;;;;;;1.83;1.25;;;20.40;72.30;;;;;;5114875;28;20024;-74
2022/07/11 09:50:27;;;;;;;1.30;1.00;;;20.40;72.10;;;;;;5114782;28;20020;-74
2022/07/11 09:53:10;;;;;;;2.67;0.98;;;20.40;72.00;;;;;;5115096;28;20024;-74
2022/07/11 09:55:38;;;;;;;1.75;0.90;;;20.50;71.70;;;;;;5097166;28;20028;-76
2022/07/11 09:58:10;;;;;;;2.13;1.33;;;20.50;71.70;;;;;;5114697;28;20036;-74
2022/07/11 10:00:38;;;;;;;2.78;1.40;;;20.60;71.50;;;;;;5097329;28;20020;-75
2022/07/11 10:03:05;;;;;;;2.00;1.30;;;20.60;71.50;;;;;;5114895;28;20024;-75
2022/07/11 10:05:32;;;;;;;2.58;1.40;;;20.70;71.70;;;;;;5114797;28;20050;-74
2022/07/11 10:07:59;;;;;;;5.55;1.50;;;20.70;71.20;;;;;;5114801;28;20024;-74
2022/07/11 10:10:26;;;;;;;2.13;1.20;;;20.80;71.30;;;;;;5114762;28;20491;-75
2022/07/11 10:12:52;;;;;;;1.85;1.17;;;20.70;71.10;;;;;;5114680;28;20027;-75
2022/07/11 10:15:29;;;;;;;2.65;1.30;;;20.80;71.20;;;;;;5114661;28;20069;-74
2022/07/11 10:18:07;;;;;;;40.30;4.57;;;20.80;71.20;;;;;;5114545;28;20053;-74
2022/07/11 10:20:42;;;;;;;7.97;1.77;;;20.80;71.20;;;;;;5114613;28;20040;-74
2022/07/11 10:23:46;;;;;;;27.98;3.75;;;20.80;71.30;;;;;;5114571;28;20027;-74
2022/07/11 10:26:20;;;;;;;17.45;2.97;;;20.80;71.10;;;;;;5114531;28;20012;-74
2022/07/11 10:28:54;;;;;;;7.88;1.95;;;20.80;71.20;;;;;;5114484;28;20028;-74
2022/07/11 10:31:20;;;;;;;2.45;1.38;;;20.70;71.00;;;;;;5114550;28;20020;-75
2022/07/11 10:34:05;;;;;;;2.70;1.25;;;20.70;71.00;;;;;;5114262;28;20024;-75
2022/07/11 10:36:33;;;;;;;2.90;1.30;;;20.70;70.90;;;;;;5114299;28;20027;-75
2022/07/11 10:39:19;;;;;;;2.83;1.10;;;20.70;71.00;;;;;;5114166;28;20031;-75
2022/07/11 10:41:45;;;;;;;6.50;2.67;;;20.70;70.90;;;;;;5114162;28;20027;-75
2022/07/11 10:44:11;;;;;;;5.03;1.52;;;20.80;71.30;;;;;;5114145;28;20024;-74
2022/07/11 10:46:37;;;;;;;4.32;1.40;;;20.90;71.10;;;;;;5114128;28;20016;-74
2022/07/11 10:49:12;;;;;;;38.10;3.63;;;20.90;70.70;;;;;;5114027;28;20051;-74
2022/07/11 10:51:44;;;;;;;4.72;1.58;;;20.90;71.00;;;;;;5114064;28;20016;-75
2022/07/11 10:54:18;;;;;;;5.82;1.70;;;21.00;71.20;;;;;;5114133;28;20043;-75
2022/07/11 10:57:21;;;;;;;17.83;2.28;;;21.00;70.90;;;;;;5113728;28;20031;-75
2022/07/11 10:59:59;;;;;;;2.15;1.23;;;21.10;70.30;;;;;;5113349;28;20033;-75
2022/07/11 11:02:26;;;;;;;3.03;1.50;;;21.10;70.40;;;;;;5113798;28;20107;-75
2022/07/11 11:04:58;;;;;;;1.83;1.40;;;21.10;70.40;;;;;;5113818;28;20051;-75
2022/07/11 11:07:41;;;;;;;3.08;1.50;;;21.10;70.40;;;;;;5113828;28;20020;-75
2022/07/11 11:10:27;;;;;;;2.83;1.23;;;21.20;70.20;;;;;;5113724;28;20028;-74
2022/07/11 11:13:09;;;;;;;2.00;1.33;;;21.20;70.10;;;;;;5095280;28;20036;-75
2022/07/11 11:15:43;;;;;;;3.20;1.60;;;21.20;70.10;;;;;;5113846;28;20024;-74
2022/07/11 11:18:27;;;;;;;2.40;1.40;;;21.20;70.20;;;;;;5113694;28;20024;-74
2022/07/11 11:21:06;;;;;;;1.52;1.15;;;21.20;70.20;;;;;;5113626;28;20070;-74
2022/07/11 11:23:41;;;;;;;1.92;1.30;;;21.20;70.10;;;;;;5113601;28;20377;-74
2022/07/11 11:26:18;;;;;;;2.75;1.60;;;21.20;70.70;;;;;;5113591;28;20012;-74
2022/07/11 11:29:06;;;;;;;2.25;1.65;;;21.30;69.80;;;;;;5113462;28;20029;-74
2022/07/11 11:31:32;;;;;;;2.90;1.60;;;21.30;69.60;;;;;;5113513;28;20471;-74
2022/07/11 11:34:00;;;;;;;1.75;1.40;;;21.30;69.80;;;;;;5113498;28;20028;-74
2022/07/11 11:36:27;;;;;;;2.92;1.52;;;21.30;69.70;;;;;;5113463;28;20065;-74
2022/07/11 11:38:53;;;;;;;2.05;1.23;;;21.40;69.70;;;;;;5113380;28;20024;-74
2022/07/11 11:41:26;;;;;;;2.10;1.27;;;21.40;70.00;;;;;;5113415;28;20020;-74
2022/07/11 11:44:00;;;;;;;3.63;1.50;;;21.40;69.80;;;;;;5113444;28;20070;-74
2022/07/11 11:46:27;;;;;;;1.67;1.25;;;21.40;69.50;;;;;;5113361;28;20042;-74
2022/07/11 11:49:02;;;;;;;2.58;1.65;;;21.50;69.20;;;;;;5078780;28;20028;-74
2022/07/11 11:51:29;;;;;;;45.78;6.15;;;21.50;69.00;;;;;;5113308;28;20097;-74
2022/07/11 11:53:57;;;;;;;42.95;5.68;;;21.50;69.20;;;;;;5113309;28;20024;-74
2022/07/11 11:56:32;;;;;;;17.00;2.35;;;21.60;69.10;;;;;;5113303;28;20085;-74
2022/07/11 11:59:12;;;;;;;48.80;5.10;;;21.60;68.70;;;;;;5113178;28;20040;-74
2022/07/11 12:01:43;;;;;;;4.03;1.80;;;21.70;68.70;;;;;;5113254;28;20027;-74
2022/07/11 12:04:11;;;;;;;3.42;1.85;;;21.70;68.20;;;;;;5113251;28;20016;-74
2022/07/11 12:06:42;;;;;;;2.45;1.50;;;21.60;67.90;;;;;;5113189;28;20016;-74
2022/07/11 12:09:16;;;;;;;2.20;1.30;;;21.70;68.50;;;;;;5113353;28;20079;-74
2022/07/11 12:11:44;;;;;;;3.78;1.45;;;21.70;68.50;;;;;;5114053;28;20035;-74
2022/07/11 12:14:12;;;;;;;2.92;1.55;;;21.80;68.50;;;;;;5117034;28;20048;-74
2022/07/11 12:16:42;;;;;;;32.75;3.40;;;21.80;68.30;;;;;;5116985;28;20111;-74
2022/07/11 12:19:16;;;;;;;13.30;2.63;;;21.90;68.00;;;;;;5116866;28;20490;-74
2022/07/11 12:21:49;;;;;;;8.23;2.08;;;21.80;67.90;;;;;;5116872;28;20016;-74
2022/07/11 12:24:20;;;;;;;35.53;4.47;;;21.90;68.00;;;;;;5116869;28;20068;-74
2022/07/11 12:26:47;;;;;;;62.00;5.63;;;21.90;68.00;;;;;;5116721;28;20039;-74
2022/07/11 12:29:24;;;;;;;14.77;2.65;;;22.00;68.30;;;;;;5116634;28;20047;-74
2022/07/11 12:31:59;;;;;;;16.33;2.60;;;22.00;67.90;;;;;;5116867;28;20028;-74
2022/07/11 12:34:33;;;;;;;35.45;3.95;;;22.00;67.60;;;;;;5116590;28;20103;-74
2022/07/11 12:37:12;;;;;;;7.95;2.50;;;22.00;67.60;;;;;;5116574;28;20052;-74
2022/07/11 12:39:51;;;;;;;42.15;5.00;;;22.00;67.30;;;;;;5098613;28;20048;-75
2022/07/11 12:42:33;;;;;;;4.60;2.05;;;22.00;67.50;;;;;;5116524;28;20020;-74
2022/07/11 12:45:15;;;;;;;30.73;2.67;;;22.00;67.60;;;;;;5116430;28;20034;-74
2022/07/11 12:47:46;;;;;;;26.92;2.97;;;22.00;67.70;;;;;;5116443;28;20052;-74
2022/07/11 12:50:22;;;;;;;3.17;1.70;;;22.00;67.80;;;;;;5116396;28;20031;-74
2022/07/11 12:52:49;;;;;;;20.25;3.22;;;22.10;67.80;;;;;;5116277;28;20027;-74
2022/07/11 12:55:22;;;;;;;33.58;3.55;;;22.10;67.90;;;;;;5116262;28;20438;-74
2022/07/11 12:58:14;;;;;;;11.55;1.95;;;22.10;68.30;;;;;;5116016;28;20051;-74
2022/07/11 13:01:03;;;;;;;2.08;1.33;;;22.20;67.60;;;;;;5116213;28;20036;-74